createdAt,value
2023-02-16T00:02:16.563Z,71.40
2023-02-16T00:04:50.800Z,66.90
2023-02-16T00:07:24.599Z,72.70
2023-02-16T00:09:58.400Z,69.30
2023-02-16T00:12:49.764Z,72.00
2023-02-16T00:15:34.599Z,69.80
2023-02-16T00:18:18.652Z,67.70
2023-02-16T00:20:53.012Z,69.40
2023-02-16T00:23:26.436Z,70.90
2023-02-16T00:26:22.153Z,69.80
2023-02-16T00:28:59.140Z,73.70
2023-02-16T00:31:33.377Z,67.90
2023-02-16T00:34:35.083Z,71.10
2023-02-16T00:37:19.555Z,72.10
2023-02-16T00:39:55.303Z,73.20
2023-02-16T00:42:33.813Z,76.00
2023-02-16T00:45:22.197Z,74.70
2023-02-16T00:47:57.567Z,76.20
2023-02-16T00:50:34.380Z,77.60
2023-02-16T00:53:18.459Z,76.50
2023-02-16T00:55:56.578Z,76.40
2023-02-16T00:58:34.045Z,77.50
2023-02-16T01:01:15.269Z,76.20
2023-02-16T01:03:49.625Z,72.70
2023-02-16T01:06:40.720Z,74.90
2023-02-16T01:09:35.823Z,72.90
2023-02-16T01:12:15.989Z,69.40
2023-02-16T01:14:53.039Z,73.10
2023-02-16T01:17:29.201Z,71.90
2023-02-16T01:20:02.747Z,76.50
2023-02-16T01:22:36.741Z,75.60
2023-02-16T01:25:15.035Z,71.10
2023-02-16T01:27:49.532Z,70.00
2023-02-16T01:30:25.050Z,74.40
2023-02-16T01:32:58.693Z,73.10
2023-02-16T01:35:36.516Z,65.10
2023-02-16T01:38:18.581Z,73.40
2023-02-16T01:41:02.617Z,71.40
2023-02-16T01:43:46.999Z,76.60
2023-02-16T01:46:27.778Z,73.40
2023-02-16T01:49:03.143Z,72.20
2023-02-16T01:51:44.577Z,70.00
2023-02-16T01:54:29.162Z,72.80
2023-02-16T01:57:08.054Z,75.70
2023-02-16T02:00:06.747Z,74.40
2023-02-16T02:02:51.275Z,70.70
2023-02-16T02:05:37.236Z,76.40
2023-02-16T02:08:19.066Z,76.50
2023-02-16T02:11:03.247Z,72.40
2023-02-16T02:13:47.179Z,72.80
2023-02-16T02:16:23.574Z,78.10
2023-02-16T02:18:58.096Z,74.30
2023-02-16T02:22:15.439Z,73.50
2023-02-16T02:25:24.542Z,76.00
2023-02-16T02:28:04.683Z,73.60
2023-02-16T02:30:49.659Z,73.60
2023-02-16T02:33:38.498Z,74.80
2023-02-16T02:36:24.089Z,77.40
2023-02-16T02:39:05.926Z,75.80
2023-02-16T02:42:07.512Z,74.50
2023-02-16T02:44:55.169Z,74.40
2023-02-16T02:47:41.612Z,71.00
2023-02-16T02:51:10.506Z,66.90
2023-02-16T02:53:49.450Z,80.60
2023-02-16T02:56:42.245Z,75.50
2023-02-16T02:59:33.850Z,78.90
2023-02-16T03:02:08.313Z,74.00
2023-02-16T03:04:53.700Z,74.40
2023-02-16T03:07:47.239Z,79.60
2023-02-16T03:10:42.375Z,69.00
2023-02-16T03:13:26.374Z,74.50
2023-02-16T03:16:04.063Z,75.80
2023-02-16T03:19:16.240Z,74.10
2023-02-16T03:22:20.072Z,78.60
2023-02-16T03:25:20.639Z,72.40
2023-02-16T03:28:14.954Z,70.10
2023-02-16T03:30:49.535Z,80.70
2023-02-16T03:33:24.275Z,74.90
2023-02-16T03:36:12.129Z,71.70
2023-02-16T03:38:46.122Z,71.70
2023-02-16T03:41:20.100Z,73.40
2023-02-16T03:43:54.459Z,74.10
2023-02-16T03:46:30.605Z,72.10
2023-02-16T03:49:04.738Z,78.00
2023-02-16T03:51:41.803Z,72.80
2023-02-16T03:54:15.456Z,78.20
2023-02-16T03:56:49.327Z,72.90
2023-02-16T03:59:23.249Z,77.30
2023-02-16T04:01:56.806Z,77.50
2023-02-16T04:04:31.121Z,74.30
2023-02-16T04:07:05.159Z,73.60
2023-02-16T04:09:38.760Z,73.50
2023-02-16T04:12:30.639Z,80.40
2023-02-16T04:15:04.521Z,71.30
2023-02-16T04:17:41.627Z,75.40
2023-02-16T04:20:19.304Z,73.30
2023-02-16T04:23:03.064Z,72.40
2023-02-16T04:25:37.429Z,73.60
2023-02-16T04:28:11.172Z,67.10
2023-02-16T04:30:55.066Z,73.50
2023-02-16T04:33:28.892Z,78.90
2023-02-16T04:36:02.210Z,71.80
2023-02-16T04:38:36.888Z,69.90
2023-02-16T04:41:10.738Z,75.90
2023-02-16T04:43:44.405Z,75.10
2023-02-16T04:46:19.575Z,75.70
2023-02-16T04:49:13.896Z,76.60
2023-02-16T04:51:47.960Z,74.00
2023-02-16T04:54:33.337Z,80.70
2023-02-16T04:57:07.643Z,80.30
2023-02-16T04:59:42.111Z,80.70
2023-02-16T05:02:15.816Z,73.70
2023-02-16T05:04:49.827Z,74.50
2023-02-16T05:07:44.414Z,82.70
2023-02-16T05:10:18.818Z,74.80
2023-02-16T05:13:10.400Z,74.30
2023-02-16T05:15:45.439Z,76.80
2023-02-16T05:18:18.814Z,67.80
2023-02-16T05:21:21.062Z,73.90
2023-02-16T05:23:55.095Z,79.20
2023-02-16T05:26:32.549Z,75.30
2023-02-16T05:29:07.044Z,77.30
2023-02-16T05:31:41.196Z,69.70
2023-02-16T05:34:15.258Z,71.00
2023-02-16T05:37:00.044Z,77.80
2023-02-16T05:39:44.847Z,72.50
2023-02-16T05:42:30.526Z,74.90
2023-02-16T05:45:07.562Z,76.20
2023-02-16T05:47:41.313Z,68.10
2023-02-16T05:50:15.709Z,72.00
2023-02-16T05:52:49.324Z,73.00
2023-02-16T05:55:23.102Z,76.10
2023-02-16T05:57:56.439Z,74.10
2023-02-16T06:00:34.172Z,71.50
2023-02-16T06:03:10.565Z,70.80
2023-02-16T06:06:05.319Z,72.80
2023-02-16T06:08:40.044Z,73.60
2023-02-16T06:11:27.689Z,75.20
2023-02-16T06:14:03.304Z,76.80
2023-02-16T06:16:37.894Z,82.20
2023-02-16T06:19:11.783Z,73.50
2023-02-16T06:21:49.190Z,68.50
2023-02-16T06:24:22.991Z,72.00
2023-02-16T06:26:57.331Z,70.20
2023-02-16T06:29:31.160Z,71.70
2023-02-16T06:32:08.193Z,70.30
2023-02-16T06:34:42.358Z,72.90
2023-02-16T06:37:16.397Z,74.20
2023-02-16T06:39:50.406Z,76.10
2023-02-16T06:42:23.993Z,84.50
2023-02-16T06:44:57.543Z,74.20
2023-02-16T06:47:31.121Z,77.20
2023-02-16T06:50:05.565Z,72.80
2023-02-16T06:52:39.303Z,71.30
2023-02-16T06:55:13.703Z,85.90
2023-02-16T06:57:47.024Z,76.90
2023-02-16T07:00:21.799Z,73.20
2023-02-16T07:02:55.274Z,84.70
2023-02-16T07:05:29.088Z,74.20
2023-02-16T07:08:03.271Z,75.60
2023-02-16T07:10:57.175Z,81.30
2023-02-16T07:13:31.254Z,75.40
2023-02-16T07:16:05.698Z,72.20
2023-02-16T07:18:39.623Z,74.50
2023-02-16T07:21:16.904Z,78.10
2023-02-16T07:23:50.766Z,83.10
2023-02-16T07:26:24.372Z,81.70
2023-02-16T07:28:58.053Z,87.20
2023-02-16T07:31:31.981Z,85.70
2023-02-16T07:34:05.770Z,93.50
2023-02-16T07:36:39.773Z,74.80
2023-02-16T07:39:13.295Z,75.30
2023-02-16T07:41:50.166Z,81.10
2023-02-16T07:44:25.295Z,73.30
2023-02-16T07:46:59.077Z,76.70
2023-02-16T07:49:33.235Z,74.10
2023-02-16T07:52:07.270Z,71.70
2023-02-16T07:54:41.102Z,81.20
2023-02-16T07:57:14.938Z,70.00
2023-02-16T07:59:49.189Z,75.90
2023-02-16T08:02:27.898Z,69.70
2023-02-16T08:05:02.217Z,70.90
2023-02-16T08:07:35.646Z,72.20
2023-02-16T08:10:10.927Z,64.70
2023-02-16T08:12:44.898Z,69.80
2023-02-16T08:15:19.251Z,62.80
2023-02-16T08:17:53.056Z,66.50
2023-02-16T08:20:45.127Z,68.40
2023-02-16T08:23:31.855Z,70.80
2023-02-16T08:26:11.452Z,64.20
2023-02-16T08:28:46.326Z,69.30
2023-02-16T08:31:23.566Z,62.10
2023-02-16T08:34:03.394Z,59.50
2023-02-16T08:36:38.981Z,61.60
2023-02-16T08:39:35.712Z,60.70
2023-02-16T08:42:13.144Z,62.30
2023-02-16T08:44:47.509Z,65.70
2023-02-16T08:47:21.891Z,65.50
2023-02-16T08:49:55.874Z,62.40
2023-02-16T08:52:30.117Z,61.30
2023-02-16T08:55:03.907Z,58.50
2023-02-16T08:57:38.481Z,61.20
2023-02-16T09:00:36.201Z,63.20
2023-02-16T09:03:10.476Z,63.10
2023-02-16T09:05:47.085Z,63.40
2023-02-16T09:08:22.054Z,57.80
2023-02-16T09:14:04.145Z,65.30
2023-02-16T09:16:47.363Z,60.60
2023-02-16T09:19:43.834Z,59.40
2023-02-16T09:22:39.595Z,60.60
2023-02-16T09:25:14.043Z,57.60
2023-02-16T09:27:51.655Z,58.20
2023-02-16T09:30:28.334Z,58.70
2023-02-16T09:33:02.505Z,60.00
2023-02-16T09:35:57.169Z,67.20
2023-02-16T09:38:30.729Z,62.70
2023-02-16T09:41:19.150Z,57.80
2023-02-16T09:43:57.804Z,56.50
2023-02-16T09:46:33.226Z,61.60
2023-02-16T09:49:08.818Z,61.60
2023-02-16T09:51:46.268Z,60.80
2023-02-16T09:54:35.021Z,61.80
2023-02-16T09:57:34.702Z,54.60
2023-02-16T10:00:15.496Z,57.00
2023-02-16T10:02:55.088Z,58.10
2023-02-16T10:05:36.467Z,59.50
2023-02-16T10:08:15.004Z,60.70
2023-02-16T10:10:55.305Z,57.50
2023-02-16T10:13:41.742Z,58.30
2023-02-16T10:16:24.490Z,62.80
2023-02-16T10:19:03.886Z,65.00
2023-02-16T10:21:38.034Z,58.10
2023-02-16T10:24:14.992Z,56.30
2023-02-16T10:26:53.082Z,58.80
2023-02-16T10:29:47.192Z,59.40
2023-02-16T10:32:31.431Z,61.00
2023-02-16T10:35:23.514Z,59.60
2023-02-16T10:38:07.086Z,61.10
2023-02-16T10:40:51.174Z,59.00
2023-02-16T10:43:39.473Z,58.00
2023-02-16T10:46:16.689Z,62.10
2023-02-16T10:48:54.662Z,55.40
2023-02-16T10:51:33.612Z,56.00
2023-02-16T10:54:12.577Z,54.10
2023-02-16T10:56:54.578Z,59.20
2023-02-16T10:59:38.907Z,55.20
2023-02-16T11:02:25.349Z,54.00
2023-02-16T11:05:26.570Z,54.50
2023-02-16T11:08:02.671Z,55.70
2023-02-16T11:10:42.906Z,52.50
2023-02-16T11:13:27.706Z,54.30
2023-02-16T11:16:07.271Z,49.30
2023-02-16T11:19:05.363Z,53.90
2023-02-16T11:21:51.252Z,51.70
2023-02-16T11:24:30.857Z,53.60
2023-02-16T11:27:25.378Z,49.80
2023-02-16T11:30:22.997Z,54.40
2023-02-16T11:33:01.269Z,53.10
2023-02-16T11:35:47.403Z,51.00
2023-02-16T11:38:38.282Z,50.30
2023-02-16T11:41:26.357Z,48.40
2023-02-16T11:44:04.471Z,51.70
2023-02-16T11:46:44.227Z,47.30
2023-02-16T11:49:40.222Z,46.10
2023-02-16T11:52:32.271Z,51.50
2023-02-16T11:55:06.572Z,46.80
2023-02-16T11:57:43.646Z,46.00
2023-02-16T12:00:23.533Z,48.60
2023-02-16T12:03:18.551Z,46.80
2023-02-16T12:06:08.448Z,48.00
2023-02-16T12:09:00.364Z,45.30
2023-02-16T12:12:03.396Z,43.10
2023-02-16T12:14:49.201Z,46.90
2023-02-16T12:17:42.744Z,48.10
2023-02-16T12:20:32.463Z,47.40
2023-02-16T12:23:20.516Z,43.10
2023-02-16T12:26:06.509Z,43.60
2023-02-16T12:28:50.365Z,44.70
2023-02-16T12:31:31.618Z,42.70
2023-02-16T12:34:22.929Z,42.90
2023-02-16T12:37:06.515Z,43.30
2023-02-16T12:39:51.766Z,42.60
2023-02-16T12:42:41.395Z,43.00
2023-02-16T12:45:19.624Z,45.60
2023-02-16T12:47:57.769Z,42.60
2023-02-16T12:50:34.119Z,41.80
2023-02-16T12:53:22.442Z,41.40
2023-02-16T12:56:01.641Z,42.40
2023-02-16T12:58:39.624Z,48.30
2023-02-16T13:01:19.308Z,44.30
2023-02-16T13:03:59.002Z,49.20
2023-02-16T13:06:40.647Z,44.90
2023-02-16T13:09:25.853Z,44.60
2023-02-16T13:12:03.682Z,48.60
2023-02-16T13:14:43.805Z,44.40
2023-02-16T13:17:22.983Z,44.20
2023-02-16T13:19:57.408Z,47.20
2023-02-16T13:22:56.355Z,47.70
2023-02-16T13:25:49.476Z,45.50
2023-02-16T13:28:48.326Z,48.20
2023-02-16T13:31:33.451Z,48.20
2023-02-16T13:34:49.055Z,45.80
2023-02-16T13:37:33.705Z,45.70
2023-02-16T13:40:54.014Z,45.10
2023-02-16T13:43:35.804Z,48.10
2023-02-16T13:46:16.090Z,48.70
2023-02-16T13:48:54.980Z,49.70
2023-02-16T13:51:31.323Z,50.00
2023-02-16T13:54:06.804Z,49.80
2023-02-16T13:56:44.009Z,50.10
2023-02-16T14:00:00.480Z,52.80
2023-02-16T14:02:56.298Z,54.90
2023-02-16T14:05:41.348Z,51.50
2023-02-16T14:08:24.647Z,52.00
2023-02-16T14:11:04.316Z,53.90
2023-02-16T14:13:52.563Z,55.70
2023-02-16T14:16:40.421Z,55.30
2023-02-16T14:19:26.466Z,55.90
2023-02-16T14:22:11.662Z,57.10
2023-02-16T14:24:52.814Z,55.10
2023-02-16T14:27:48.188Z,53.40
2023-02-16T14:30:52.417Z,54.80
2023-02-16T14:33:40.795Z,60.20
2023-02-16T14:36:19.331Z,57.00
2023-02-16T14:38:58.778Z,52.60
2023-02-16T14:41:35.149Z,57.00
2023-02-16T14:44:34.846Z,60.30
2023-02-16T14:47:22.911Z,54.80
2023-02-16T14:50:16.057Z,53.40
2023-02-16T14:53:16.840Z,59.00
2023-02-16T14:56:19.898Z,55.30
2023-02-16T14:59:07.086Z,55.20
2023-02-16T15:01:48.519Z,56.70
2023-02-16T15:04:35.696Z,55.80
2023-02-16T15:07:09.776Z,51.80
2023-02-16T15:09:45.670Z,55.40
2023-02-16T15:12:25.939Z,52.90
2023-02-16T15:15:03.480Z,52.60
2023-02-16T15:17:40.845Z,53.50
2023-02-16T15:20:35.577Z,53.30
2023-02-16T15:23:19.357Z,53.50
2023-02-16T15:26:02.760Z,56.90
2023-02-16T15:28:38.780Z,55.90
2023-02-16T15:31:24.081Z,51.10
2023-02-16T15:34:12.734Z,51.60
2023-02-16T15:36:48.638Z,54.60
2023-02-16T15:39:43.690Z,52.90
2023-02-16T15:42:27.573Z,49.60
2023-02-16T15:47:35.731Z,55.20
2023-02-16T15:50:20.627Z,57.60
2023-02-16T15:53:00.583Z,57.70
2023-02-16T15:55:43.606Z,58.40
2023-02-16T15:58:19.866Z,58.90
2023-02-16T16:00:58.430Z,55.20
2023-02-16T16:03:47.054Z,52.90
2023-02-16T16:06:23.830Z,59.10
2023-02-16T16:09:01.210Z,59.80
2023-02-16T16:11:36.017Z,64.70
2023-02-16T16:14:16.903Z,57.10
2023-02-16T16:16:51.946Z,54.00
2023-02-16T16:19:34.057Z,63.40
2023-02-16T16:22:43.413Z,56.60
2023-02-16T16:25:45.550Z,57.10
2023-02-16T16:28:39.975Z,58.40
2023-02-16T16:31:18.310Z,56.40
2023-02-16T16:34:02.977Z,62.50
2023-02-16T16:36:50.294Z,60.00
2023-02-16T16:39:31.541Z,64.20
2023-02-16T16:42:22.159Z,60.60
2023-02-16T16:45:36.484Z,60.80
2023-02-16T16:48:20.238Z,57.90
2023-02-16T16:51:13.513Z,54.50
2023-02-16T16:54:40.531Z,54.00
2023-02-16T16:59:55.605Z,55.50
2023-02-16T17:02:34.269Z,62.70
2023-02-16T17:05:28.769Z,58.50
2023-02-16T17:08:29.548Z,55.10
2023-02-16T17:11:10.107Z,58.10
2023-02-16T17:13:50.247Z,63.60
2023-02-16T17:16:30.250Z,55.90
2023-02-16T17:19:28.465Z,56.80
2023-02-16T17:22:23.350Z,57.80
2023-02-16T17:24:58.856Z,59.60
2023-02-16T17:27:37.792Z,61.80
2023-02-16T17:30:20.487Z,61.40
2023-02-16T17:32:57.123Z,63.70
2023-02-16T17:35:34.698Z,67.00
2023-02-16T17:38:21.430Z,61.90
2023-02-16T17:41:03.283Z,63.00
2023-02-16T17:43:39.717Z,64.10
2023-02-16T17:46:28.730Z,62.50
2023-02-16T17:49:07.597Z,59.50
2023-02-16T17:52:05.521Z,58.00
2023-02-16T17:54:44.112Z,58.80
2023-02-16T17:57:26.697Z,59.80
2023-02-16T18:00:05.417Z,57.60
2023-02-16T18:02:42.304Z,58.00
2023-02-16T18:05:18.058Z,57.60
2023-02-16T18:07:57.264Z,60.90
2023-02-16T18:10:40.308Z,58.90
2023-02-16T18:13:17.835Z,59.40
2023-02-16T18:15:57.114Z,60.10
2023-02-16T18:18:40.601Z,57.70
2023-02-16T18:21:18.235Z,62.00
2023-02-16T18:23:55.962Z,65.10
2023-02-16T18:26:35.696Z,65.60
2023-02-16T18:29:15.318Z,58.50
2023-02-16T18:31:54.345Z,62.80
2023-02-16T18:34:40.702Z,61.60
2023-02-16T18:37:26.752Z,63.80
2023-02-16T18:40:05.465Z,57.30
2023-02-16T18:42:46.586Z,62.40
2023-02-16T18:45:30.017Z,58.90
2023-02-16T18:48:08.766Z,63.00
2023-02-16T18:50:49.713Z,57.70
2023-02-16T18:56:30.625Z,58.70
2023-02-16T18:59:09.837Z,58.70
2023-02-16T19:01:46.246Z,57.80
2023-02-16T19:04:26.111Z,64.50
2023-02-16T19:09:42.623Z,55.50
2023-02-16T19:12:32.510Z,58.30
2023-02-16T19:15:11.556Z,63.50
2023-02-16T19:17:51.467Z,61.60
2023-02-16T19:20:38.252Z,58.10
2023-02-16T19:23:16.842Z,63.00
2023-02-16T19:25:55.832Z,57.70
2023-02-16T19:28:33.543Z,65.30
2023-02-16T19:31:19.372Z,62.90
2023-02-16T19:33:57.899Z,59.50
2023-02-16T19:36:38.397Z,57.60
2023-02-16T19:39:20.824Z,57.40
2023-02-16T19:42:00.618Z,59.80
2023-02-16T19:44:47.440Z,59.40
2023-02-16T19:47:25.656Z,59.20
2023-02-16T19:50:05.208Z,67.40
2023-02-16T19:52:57.318Z,63.90
2023-02-16T19:55:35.377Z,60.30
2023-02-16T19:58:15.405Z,61.20
2023-02-16T20:01:02.200Z,60.60
2023-02-16T20:03:43.267Z,58.90
2023-02-16T20:06:40.420Z,61.50
2023-02-16T20:09:24.420Z,61.10
2023-02-16T20:12:16.894Z,60.00
2023-02-16T20:14:56.872Z,60.60
2023-02-16T20:17:37.054Z,60.70
2023-02-16T20:20:18.863Z,59.90
2023-02-16T20:22:57.330Z,62.30
2023-02-16T20:25:36.249Z,66.00
2023-02-16T20:28:14.133Z,57.10
2023-02-16T20:30:53.082Z,64.70
2023-02-16T20:33:35.751Z,65.40
2023-02-16T20:36:14.307Z,60.60
2023-02-16T20:38:54.549Z,60.40
2023-02-16T20:41:36.238Z,64.40
2023-02-16T20:44:15.435Z,64.00
2023-02-16T20:46:56.444Z,64.20
2023-02-16T20:49:35.163Z,62.60
2023-02-16T20:52:13.166Z,61.70
2023-02-16T20:54:50.741Z,63.00
2023-02-16T20:57:31.192Z,62.60
2023-02-16T21:00:14.093Z,61.50
2023-02-16T21:02:57.825Z,59.60
2023-02-16T21:05:35.931Z,59.00
2023-02-16T21:08:23.250Z,62.30
2023-02-16T21:11:00.091Z,64.30
2023-02-16T21:13:40.904Z,66.40
2023-02-16T21:16:16.762Z,64.40
2023-02-16T21:18:54.138Z,59.60
2023-02-16T21:21:34.499Z,62.50
2023-02-16T21:24:12.261Z,63.70
2023-02-16T21:26:49.275Z,65.60
2023-02-16T21:29:32.861Z,59.60
2023-02-16T21:32:08.188Z,63.90
2023-02-16T21:34:44.090Z,61.30
2023-02-16T21:37:19.158Z,61.30
2023-02-16T21:40:11.195Z,59.40
2023-02-16T21:42:46.632Z,65.80
2023-02-16T21:45:21.732Z,59.30
2023-02-16T21:48:12.798Z,56.20
2023-02-16T21:50:46.788Z,63.80
2023-02-16T21:53:21.627Z,64.80
2023-02-16T21:56:13.186Z,65.20
2023-02-16T21:58:48.477Z,63.30
2023-02-16T22:01:27.079Z,62.10
2023-02-16T22:04:02.223Z,64.10
2023-02-16T22:06:39.608Z,60.00
2023-02-16T22:09:15.924Z,65.40
2023-02-16T22:11:50.611Z,57.50
2023-02-16T22:14:24.622Z,61.10
2023-02-16T22:16:58.176Z,61.20
2023-02-16T22:19:31.931Z,62.90
2023-02-16T22:22:05.723Z,58.50
2023-02-16T22:24:39.483Z,58.40
2023-02-16T22:27:13.382Z,59.80
2023-02-16T22:29:47.626Z,63.30
2023-02-16T22:32:31.220Z,60.00
2023-02-16T22:35:16.493Z,61.30
2023-02-16T22:37:50.131Z,64.90
2023-02-16T22:40:27.217Z,60.70
2023-02-16T22:43:00.992Z,57.00
2023-02-16T22:45:35.048Z,60.80
2023-02-16T22:48:09.249Z,59.40
2023-02-16T22:50:43.132Z,59.70
2023-02-16T22:53:17.208Z,61.20
2023-02-16T22:55:51.101Z,56.10
2023-02-16T22:58:25.287Z,64.10
2023-02-16T23:00:59.122Z,59.60
2023-02-16T23:03:32.650Z,60.40
2023-02-16T23:06:15.989Z,59.70
2023-02-16T23:08:53.428Z,62.20
2023-02-16T23:11:29.009Z,65.50
2023-02-16T23:14:02.964Z,63.00
2023-02-16T23:16:36.938Z,61.70
2023-02-16T23:19:13.110Z,61.00
2023-02-16T23:21:46.674Z,61.70
2023-02-16T23:24:22.156Z,63.70
2023-02-16T23:26:56.750Z,58.10
2023-02-16T23:29:31.823Z,60.00
2023-02-16T23:32:06.112Z,65.20
2023-02-16T23:34:39.979Z,65.60
2023-02-16T23:37:13.721Z,66.40
2023-02-16T23:39:48.174Z,58.00
2023-02-16T23:42:22.031Z,61.60
2023-02-16T23:44:56.666Z,58.30
2023-02-16T23:47:30.415Z,60.60
2023-02-16T23:50:04.119Z,56.80
2023-02-16T23:52:37.889Z,63.50
2023-02-16T23:55:11.852Z,70.40
2023-02-16T23:57:45.601Z,66.40
